createdAt,value
2022-12-08T00:06:55.851Z,4.1428084469591315
2022-12-08T00:22:12.794Z,4.151671247332575
2022-12-08T00:37:28.794Z,4.169396726829875
2022-12-08T00:52:44.710Z,4.36083738621783
2022-12-08T01:08:01.848Z,4.195984642955978
2022-12-08T01:23:17.657Z,4.387467410215805
2022-12-08T01:38:34.664Z,4.387467410215805
2022-12-08T01:53:51.599Z,4.387467410215805
2022-12-08T02:09:08.609Z,4.387467410215805
2022-12-08T02:24:24.546Z,4.378590775514537
2022-12-08T02:39:40.550Z,4.369714100848639
2022-12-08T02:55:10.891Z,4.36083738621783
2022-12-08T03:10:14.493Z,4.343083837060408
2022-12-08T03:25:30.435Z,4.334207002533262
2022-12-08T03:40:46.425Z,4.32533012804012
2022-12-08T03:56:03.350Z,4.298699264762089
2022-12-08T04:11:20.362Z,4.461131480067445
2022-12-08T04:26:37.289Z,4.452240448416691
2022-12-08T04:41:53.293Z,4.434458266552219
2022-12-08T04:57:10.259Z,4.416675926602027
2022-12-08T05:12:26.207Z,4.3900021202614
2022-12-08T05:27:42.212Z,4.363327958216067
2022-12-08T05:42:58.155Z,4.336653440458892
2022-12-08T05:58:15.134Z,4.318870230999579
2022-12-08T06:13:32.078Z,4.29219512037353
2022-12-08T06:28:49.092Z,4.265519654016679
2022-12-08T06:44:06.009Z,4.4342883174419745
2022-12-08T06:59:22.985Z,4.4342883174419745
2022-12-08T07:14:38.968Z,4.4342883174419745
2022-12-08T07:29:54.935Z,4.47881621863163
2022-12-08T07:45:10.904Z,4.523343142772981
2022-12-08T08:00:28.027Z,4.1428084469591315
2022-12-08T08:15:44.937Z,3.8767409613146193
2022-12-08T08:31:01.916Z,3.7838979885515784
2022-12-08T08:46:17.795Z,3.6882115999246317
2022-12-08T09:01:34.817Z,3.5720315609294926
2022-12-08T09:16:50.785Z,3.330097581307787
2022-12-08T09:32:06.681Z,3.1293731672249256
2022-12-08T09:47:23.688Z,2.978293939949473
2022-12-08T10:02:42.640Z,3.4002823944559624
2022-12-08T10:17:58.621Z,3.8378644621424045
2022-12-08T10:33:14.577Z,4.066074170344282
2022-12-08T10:48:30.563Z,4.101343185027583
2022-12-08T11:03:47.542Z,4.336037450143053
2022-12-08T11:19:03.513Z,4.362531915943515
2022-12-08T11:34:20.440Z,4.603801127246385
2022-12-08T11:49:37.435Z,4.6303377611826795
2022-12-08T12:04:54.403Z,4.674564667417207
2022-12-08T12:20:10.384Z,4.7011003209747955
2022-12-08T12:35:27.439Z,4.7011003209747955
2022-12-08T12:50:42.302Z,4.922580195317829
2022-12-08T13:05:59.281Z,4.940298644462645
2022-12-08T13:21:16.261Z,5.150708516428243
2022-12-08T13:36:33.221Z,5.35003510982139
2022-12-08T13:53:56.187Z,5.35003510982139
2022-12-08T14:07:06.173Z,5.35892215121795
2022-12-08T14:22:22.098Z,5.3678091531204775
2022-12-08T14:37:38.213Z,5.35892215121795
2022-12-08T14:52:54.027Z,5.538291992558822
2022-12-08T15:08:11.077Z,5.538291992558822
2022-12-08T15:23:27.978Z,5.484886288007338
2022-12-08T15:38:44.970Z,5.4136764949680805
2022-12-08T15:54:00.920Z,5.351365875679318
2022-12-08T16:09:18.132Z,5.306857118776271
2022-12-08T16:24:33.844Z,5.253445321575263
2022-12-08T16:39:49.889Z,5.20893441643891
2022-12-08T16:55:07.111Z,5.182227404629036
2022-12-08T17:10:24.791Z,5.164422534781467
2022-12-08T17:25:41.735Z,5.1377149370435085
2022-12-08T17:40:58.734Z,5.09320149288546
2022-12-08T17:56:13.673Z,5.057590034405215
2022-12-08T18:11:30.659Z,5.021977950881531
2022-12-08T18:26:46.606Z,5.004171674723266
2022-12-08T18:42:02.562Z,4.977461967484535
2022-12-08T18:57:19.577Z,4.9418484775529645
2022-12-08T19:12:37.503Z,5.091381937405431
2022-12-08T19:27:54.518Z,5.064630158022784
2022-12-08T19:43:10.443Z,5.046795445282313
2022-12-08T19:58:26.452Z,5.020043086438532
2022-12-08T20:13:43.389Z,4.993290379909032
2022-12-08T20:28:59.402Z,4.9576195636802165
2022-12-08T20:44:16.334Z,4.939783923765782
2022-12-08T20:59:33.408Z,4.921948129315339
2022-12-08T21:14:51.266Z,4.8951941478802325
2022-12-08T21:30:07.651Z,4.859521631738592
2022-12-08T21:45:23.306Z,4.841685141851189
2022-12-08T22:00:39.274Z,4.823848497416717
2022-12-08T22:15:56.226Z,4.979715921148675
2022-12-08T22:31:12.155Z,4.961852015351934
2022-12-08T22:31:59.099Z,4.961852015351934
2022-12-08T22:46:30.149Z,4.9439879567473675
2022-12-08T23:01:42.016Z,4.9261237453330216
2022-12-08T23:16:59.182Z,4.90825938110692
2022-12-08T23:32:16.073Z,4.890394864067107
2022-12-08T23:47:32.260Z,4.863597801977401
